Time;durP1;ratioP1;P1;durP2;ratioP2;P2;SDS_P1;SDS_P2;PMS_P1;PMS_P2;Temp;Humidity;BMP_temperature;BMP_pressure;BME280_temperature;BME280_humidity;BME280_pressure;Samples;Min_cycle;Max_cycle;Signal;HPM_P1;HPM_P2
2023/06/01 00:00:23;;;;;;;20.58;7.90;;;;;;;12.41;100.00;102019.13;10509526;28;20090;-84
2023/06/01 00:05:23;;;;;;;14.30;6.30;;;;;;;12.27;100.00;102015.66;10524076;28;20123;-85
2023/06/01 00:10:24;;;;;;;14.20;7.70;;;;;;;12.15;100.00;102010.63;10523886;28;20142;-83
2023/06/01 00:15:24;;;;;;;15.30;8.65;;;;;;;12.12;100.00;102020.94;10539762;28;20074;-85
2023/06/01 00:20:28;;;;;;;22.75;9.35;;;;;;;11.94;100.00;102017.16;10526380;28;20036;-84
2023/06/01 00:25:29;;;;;;;15.85;10.20;;;;;;;11.75;100.00;102026.53;10505441;28;20051;-84
2023/06/01 00:30:29;;;;;;;19.48;8.30;;;;;;;11.58;100.00;102026.41;10473591;28;20139;-83
2023/06/01 00:35:30;;;;;;;15.07;7.85;;;;;;;11.57;100.00;102026.28;10505760;28;20531;-83
2023/06/01 00:40:30;;;;;;;18.35;10.13;;;;;;;11.43;100.00;102021.09;10507440;28;20103;-82
2023/06/01 00:45:31;;;;;;;16.73;8.82;;;;;;;11.24;100.00;102029.53;10483085;28;20074;-83
2023/06/01 00:50:32;;;;;;;21.33;8.30;;;;;;;11.08;100.00;102045.06;10506403;28;20516;-83
2023/06/01 00:55:32;;;;;;;30.10;10.65;;;;;;;11.01;100.00;102042.06;10507269;28;20044;-82
2023/06/01 01:00:32;;;;;;;17.10;7.28;;;;;;;10.93;100.00;102035.41;10490052;28;20100;-84
2023/06/01 01:05:34;;;;;;;20.00;9.38;;;;;;;10.81;100.00;102043.34;10472119;28;20031;-81
2023/06/01 01:10:55;;;;;;;17.20;8.93;;;;;;;10.68;100.00;102040.75;10506126;28;20032;-84
2023/06/01 01:16:20;;;;;;;24.43;9.47;;;;;;;10.56;100.00;102044.34;10466395;28;20128;-84
2023/06/01 01:21:27;;;;;;;26.67;11.18;;;;;;;10.60;100.00;102048.09;10513460;28;20048;-83
2023/06/01 01:27:15;;;;;;;18.20;9.95;;;;;;;10.54;100.00;102052.94;10464100;28;20515;-83
2023/06/01 01:32:16;;;;;;;21.30;11.57;;;;;;;10.42;100.00;102050.38;10311990;28;20046;-84
2023/06/01 01:37:16;;;;;;;20.05;10.15;;;;;;;10.23;100.00;102043.88;10444832;28;20544;-83
2023/06/01 01:42:17;;;;;;;19.98;11.77;;;;;;;10.05;100.00;102046.16;10495507;28;20115;-84
2023/06/01 01:47:25;;;;;;;17.80;9.35;;;;;;;9.94;100.00;102055.84;10496254;28;20115;-84
2023/06/01 01:52:26;;;;;;;21.40;12.13;;;;;;;10.07;100.00;102062.84;10508021;28;20046;-83
2023/06/01 01:57:27;;;;;;;23.17;11.47;;;;;;;10.05;100.00;102056.63;10511379;28;20044;-84
2023/06/01 02:02:28;;;;;;;32.20;13.38;;;;;;;9.93;100.00;102054.03;10495170;28;20459;-84
2023/06/01 02:07:28;;;;;;;27.17;13.63;;;;;;;9.87;100.00;102058.84;10497089;28;20028;-83
2023/06/01 02:12:29;;;;;;;27.67;12.32;;;;;;;9.76;100.00;102055.50;10512597;28;20035;-82
2023/06/01 02:17:29;;;;;;;27.75;12.10;;;;;;;9.74;100.00;102051.88;10529732;28;20063;-82
2023/06/01 02:22:30;;;;;;;30.08;14.40;;;;;;;9.59;100.00;102054.28;10511618;28;20052;-83
2023/06/01 02:27:31;;;;;;;25.70;15.15;;;;;;;9.51;100.00;102056.38;10529008;28;20510;-82
2023/06/01 02:32:32;;;;;;;24.30;14.55;;;;;;;9.33;100.00;102057.69;10527169;28;20036;-82
2023/06/01 02:37:32;;;;;;;26.45;15.18;;;;;;;9.25;100.00;102073.72;10506007;28;20471;-81
2023/06/01 02:42:33;;;;;;;22.85;12.65;;;;;;;9.14;100.00;102068.50;10526855;28;20044;-83
2023/06/01 02:47:33;;;;;;;30.83;13.82;;;;;;;9.06;100.00;102071.44;10508629;28;20544;-82
2023/06/01 02:52:35;;;;;;;26.52;15.63;;;;;;;8.96;100.00;102071.56;10527911;28;20048;-83
2023/06/01 02:57:35;;;;;;;26.48;14.30;;;;;;;8.89;100.00;102075.44;10512057;28;20035;-83
2023/06/01 03:02:36;;;;;;;28.30;15.82;;;;;;;8.84;100.00;102074.19;10525288;28;20492;-83
2023/06/01 03:07:36;;;;;;;28.35;15.07;;;;;;;8.76;100.00;102080.56;10528397;28;20035;-81
2023/06/01 03:12:37;;;;;;;28.75;13.23;;;;;;;9.01;100.00;102074.53;10490979;28;20039;-80
2023/06/01 03:17:37;;;;;;;24.42;14.82;;;;;;;9.21;100.00;102074.28;10528563;28;20463;-82
2023/06/01 03:22:40;;;;;;;24.05;13.73;;;;;;;9.32;100.00;102082.00;10461650;28;20126;-81
2023/06/01 03:27:41;;;;;;;40.90;13.05;;;;;;;9.39;100.00;102073.81;10479421;28;20043;-81
2023/06/01 03:32:42;;;;;;;26.95;15.52;;;;;;;9.55;100.00;102075.78;10532224;28;20043;-82
2023/06/01 03:37:44;;;;;;;28.67;14.60;;;;;;;9.65;100.00;102069.53;10479638;28;20043;-82
2023/06/01 03:42:46;;;;;;;28.98;14.98;;;;;;;9.65;100.00;102066.91;10509500;28;20111;-83
2023/06/01 03:47:46;;;;;;;23.05;13.48;;;;;;;9.70;100.00;102069.03;10463374;28;20036;-82
2023/06/01 03:52:47;;;;;;;24.42;12.55;;;;;;;9.71;100.00;102059.50;10493225;28;20032;-83
2023/06/01 03:57:47;;;;;;;17.25;10.68;;;;;;;9.78;100.00;102063.44;10463993;28;20122;-82
2023/06/01 04:02:55;;;;;;;26.52;14.13;;;;;;;9.76;100.00;102065.03;10508759;28;20479;-82
2023/06/01 04:07:56;;;;;;;21.67;11.85;;;;;;;9.71;100.00;102067.34;10481030;28;20036;-83
2023/06/01 04:12:57;;;;;;;17.20;9.88;;;;;;;9.58;100.00;102078.63;10492481;28;20115;-84
2023/06/01 04:17:57;;;;;;;19.83;13.10;;;;;;;9.60;100.00;102081.34;10503147;28;20468;-83
2023/06/01 04:22:58;;;;;;;19.63;12.38;;;;;;;9.49;100.00;102077.97;10506052;28;20040;-84
2023/06/01 04:27:59;;;;;;;22.63;10.13;;;;;;;9.54;100.00;102090.59;10477270;28;20119;-84
2023/06/01 04:32:59;;;;;;;17.65;10.50;;;;;;;9.78;100.00;102086.97;10519929;28;20058;-84
2023/06/01 04:38:00;;;;;;;19.52;10.55;;;;;;;9.83;100.00;102085.59;10516443;28;20490;-83
2023/06/01 04:43:02;;;;;;;15.90;10.05;;;;;;;9.97;100.00;102083.94;10482560;28;20067;-84
2023/06/01 04:48:04;;;;;;;22.88;11.48;;;;;;;10.04;100.00;102087.88;10442475;28;20036;-83
2023/06/01 04:53:04;;;;;;;17.25;10.70;;;;;;;10.23;100.00;102087.47;10501638;28;20043;-83
2023/06/01 04:58:06;;;;;;;19.13;11.02;;;;;;;10.36;100.00;102081.34;10494426;28;20139;-84
2023/06/01 05:03:07;;;;;;;15.15;9.85;;;;;;;10.47;100.00;102071.66;10515520;28;20046;-83
2023/06/01 05:08:07;;;;;;;15.50;10.07;;;;;;;10.72;100.00;102069.88;10521860;28;20138;-81
2023/06/01 05:13:08;;;;;;;25.80;12.50;;;;;;;10.90;100.00;102058.78;10510635;28;20138;-82
2023/06/01 05:18:09;;;;;;;19.23;10.68;;;;;;;11.15;100.00;102058.66;10508410;28;20182;-80
2023/06/01 05:23:10;;;;;;;19.52;10.85;;;;;;;11.93;100.00;102052.97;10495764;28;20123;-80
2023/06/01 05:28:10;;;;;;;19.38;9.52;;;;;;;13.10;100.00;102042.25;10514512;28;20050;-84
2023/06/01 05:33:11;;;;;;;12.85;8.48;;;;;;;13.76;100.00;102030.97;10474287;28;20373;-83
2023/06/01 05:38:11;;;;;;;13.63;9.00;;;;;;;14.02;100.00;102042.84;10521399;28;20068;-85
2023/06/01 05:43:12;;;;;;;15.65;8.88;;;;;;;12.80;100.00;102044.97;10530278;28;20170;-83
2023/06/01 05:48:14;;;;;;;17.77;10.30;;;;;;;11.48;100.00;102051.94;10470778;28;20035;-82
2023/06/01 05:53:14;;;;;;;14.43;10.23;;;;;;;12.37;100.00;102059.13;10491507;28;20063;-80
2023/06/01 05:58:15;;;;;;;12.77;8.50;;;;;;;13.53;100.00;102048.13;10472676;28;20079;-81
2023/06/01 06:03:15;;;;;;;16.02;9.27;;;;;;;12.92;100.00;102056.16;10480761;28;20060;-80
2023/06/01 06:08:16;;;;;;;13.75;9.43;;;;;;;12.56;100.00;102052.34;10509114;28;20121;-80
2023/06/01 06:13:16;;;;;;;18.27;10.73;;;;;;;13.63;100.00;102043.47;10513669;28;20059;-80
2023/06/01 06:18:19;;;;;;;16.48;8.93;;;;;;;16.47;100.00;102042.91;10458402;28;20545;-80
2023/06/01 06:23:20;;;;;;;14.23;8.40;;;;;;;18.27;100.00;102043.59;10514486;28;20037;-80
2023/06/01 06:28:21;;;;;;;15.00;10.98;;;;;;;18.96;100.00;102052.94;10468910;28;20056;-80
2023/06/01 06:33:22;;;;;;;13.90;10.00;;;;;;;19.02;93.87;102047.00;10487269;28;20112;-80
2023/06/01 06:38:22;;;;;;;13.33;9.37;;;;;;;19.61;92.00;102048.75;10515156;28;21791;-82
2023/06/01 06:43:23;;;;;;;11.30;7.93;;;;;;;20.51;81.43;102049.44;10510457;28;20051;-81
2023/06/01 06:48:23;;;;;;;16.00;9.73;;;;;;;20.76;72.78;102044.72;10467490;28;20449;-82
2023/06/01 06:53:24;;;;;;;17.37;9.43;;;;;;;20.64;74.53;102052.41;10454713;28;20119;-81
2023/06/01 06:58:24;;;;;;;12.97;9.63;;;;;;;20.66;74.75;102050.69;10507914;28;20064;-82
2023/06/01 07:03:26;;;;;;;12.60;9.33;;;;;;;21.71;67.13;102045.09;10508888;28;20064;-82
2023/06/01 07:08:26;;;;;;;15.10;9.35;;;;;;;22.37;62.19;102046.31;10510157;28;20072;-80
2023/06/01 07:13:27;;;;;;;10.67;7.73;;;;;;;22.18;61.76;102045.97;10526034;28;20048;-80
2023/06/01 07:18:27;;;;;;;13.80;8.97;;;;;;;21.94;63.68;102047.31;10526701;28;20040;-81
2023/06/01 07:23:28;;;;;;;14.43;10.07;;;;;;;22.33;63.04;102040.03;10487090;28;1161904;-81
2023/06/01 07:28:29;;;;;;;16.33;10.50;;;;;;;21.58;65.63;102037.69;10510027;28;20548;-82
2023/06/01 07:33:30;;;;;;;17.48;11.57;;;;;;;22.27;59.48;102038.16;10527581;28;20059;-87
2023/06/01 07:38:31;;;;;;;20.40;10.45;;;;;;;22.78;60.59;102043.47;10493214;28;20050;-86
2023/06/01 07:43:31;;;;;;;43.83;13.50;;;;;;;23.16;57.15;102045.81;10492890;28;20444;-83
2023/06/01 07:48:38;;;;;;;14.67;10.63;;;;;;;22.62;62.01;102050.34;10508787;28;20633;-85
2023/06/01 07:53:38;;;;;;;14.68;11.15;;;;;;;23.44;60.70;102054.22;10493176;28;20032;-83
2023/06/01 07:58:39;;;;;;;14.93;10.43;;;;;;;23.50;59.34;102045.41;10527243;28;20111;-82
2023/06/01 08:03:43;;;;;;;27.70;11.47;;;;;;;24.05;52.49;102044.28;10527523;28;20040;-84
2023/06/01 08:08:45;;;;;;;15.05;10.05;;;;;;;23.84;53.90;102039.53;10508213;28;20036;-80
2023/06/01 08:13:46;;;;;;;16.85;10.63;;;;;;;24.08;53.42;102043.38;10508020;28;20028;-86
2023/06/01 08:18:46;;;;;;;14.00;8.43;;;;;;;24.64;50.18;102034.97;10527567;28;20059;-85
2023/06/01 08:23:47;;;;;;;17.10;9.97;;;;;;;24.74;49.49;102043.09;10507172;28;20507;-86
2023/06/01 08:28:51;;;;;;;17.00;10.10;;;;;;;24.62;50.29;102026.03;10507144;28;20115;-86
2023/06/01 08:33:52;;;;;;;12.80;8.27;;;;;;;24.68;50.67;102014.50;10508303;28;20392;-82
2023/06/01 08:38:55;;;;;;;20.67;10.82;;;;;;;24.58;53.20;102021.53;10490704;28;20044;-81
2023/06/01 08:44:00;;;;;;;12.63;8.02;;;;;;;25.15;47.52;102017.47;10507431;28;20055;-83
2023/06/01 08:49:01;;;;;;;20.27;11.13;;;;;;;24.89;48.53;102013.75;10490662;28;20036;-83
2023/06/01 08:54:03;;;;;;;13.17;9.67;;;;;;;24.77;49.52;102013.69;10507936;28;20380;-84
2023/06/01 08:59:03;;;;;;;17.65;10.05;;;;;;;24.65;51.28;102003.75;10523469;28;20028;-82
2023/06/01 09:04:04;;;;;;;14.40;10.70;;;;;;;25.84;49.66;102008.81;10524948;28;20059;-81
2023/06/01 09:09:06;;;;;;;17.77;11.47;;;;;;;26.43;45.29;101999.94;10507721;28;20111;-80
2023/06/01 09:14:23;;;;;;;13.60;8.90;;;;;;;26.17;46.38;102000.84;10505833;28;20414;-81
2023/06/01 09:19:23;;;;;;;13.40;9.20;;;;;;;25.63;46.15;101994.47;10506864;28;20379;-84
2023/06/01 09:24:24;;;;;;;22.40;11.37;;;;;;;25.81;45.32;101990.06;10524302;28;20060;-82
2023/06/01 09:29:24;;;;;;;15.23;9.30;;;;;;;26.22;46.12;101980.28;10506248;28;20480;-85
2023/06/01 09:34:25;;;;;;;17.57;9.97;;;;;;;26.28;46.98;101977.59;10490047;28;20059;-81
2023/06/01 09:39:25;;;;;;;13.43;9.93;;;;;;;26.85;45.09;101978.44;10523272;28;20047;-83
2023/06/01 09:44:29;;;;;;;15.03;10.20;;;;;;;26.87;41.27;101973.97;10506448;28;20032;-85
2023/06/01 09:49:32;;;;;;;18.13;11.13;;;;;;;26.79;42.08;101972.16;10506002;28;20298;-84
2023/06/01 09:54:34;;;;;;;37.13;13.13;;;;;;;27.02;43.24;101956.88;10490035;28;20066;-81
2023/06/01 09:59:52;;;;;;;15.48;10.30;;;;;;;27.39;42.43;101954.94;10488573;28;20063;-81
2023/06/01 10:04:55;;;;;;;15.82;10.10;;;;;;;26.97;40.80;101971.22;10506276;28;20486;-80
2023/06/01 10:09:58;;;;;;;20.65;9.52;;;;;;;27.43;42.25;101955.78;10472813;28;20043;-81
2023/06/01 10:14:58;;;;;;;21.20;10.52;;;;;;;27.68;41.46;101952.97;10492465;28;20040;-83
2023/06/01 10:19:59;;;;;;;13.23;8.47;;;;;;;27.62;43.37;101958.41;10512829;28;20044;-81
2023/06/01 10:25:00;;;;;;;16.23;9.73;;;;;;;27.96;42.22;101958.16;10470788;28;20036;-82
2023/06/01 10:30:00;;;;;;;14.23;9.67;;;;;;;27.48;37.90;101956.66;10444927;28;20115;-80
2023/06/01 10:35:01;;;;;;;17.77;9.57;;;;;;;27.11;41.64;101954.16;10530768;28;20302;-81
2023/06/01 10:40:23;;;;;;;13.17;9.70;;;;;;;27.41;43.01;101952.22;10512651;28;20143;-82
2023/06/01 10:45:39;;;;;;;18.65;10.73;;;;;;;27.35;38.70;101944.19;10511978;28;20048;-81
2023/06/01 10:50:41;;;;;;;23.45;11.02;;;;;;;27.20;45.14;101942.50;10470551;28;20086;-82
2023/06/01 10:55:41;;;;;;;21.77;10.65;;;;;;;27.15;40.52;101937.13;10511425;28;20515;-83
2023/06/01 11:00:42;;;;;;;17.33;11.87;;;;;;;27.55;40.96;101928.00;10504378;28;20039;-83
2023/06/01 11:05:46;;;;;;;17.63;9.93;;;;;;;27.82;38.34;101931.38;10496489;28;20055;-84
2023/06/01 11:10:53;;;;;;;18.20;11.60;;;;;;;26.72;43.16;101915.78;10510834;28;20408;-80
2023/06/01 11:16:14;;;;;;;16.58;10.48;;;;;;;27.09;41.83;101918.34;10528353;28;20036;-83
2023/06/01 11:21:16;;;;;;;17.70;9.40;;;;;;;28.01;40.25;101918.66;10529103;28;20056;-84
2023/06/01 11:26:18;;;;;;;17.88;10.00;;;;;;;27.68;40.46;101915.34;10526563;28;20051;-83
2023/06/01 11:31:19;;;;;;;16.30;10.90;;;;;;;27.81;42.82;101903.59;10494238;28;20479;-81
2023/06/01 11:36:23;;;;;;;22.75;11.32;;;;;;;28.31;42.48;101895.09;10452499;28;20032;-82
2023/06/01 11:41:24;;;;;;;20.65;11.63;;;;;;;28.43;42.82;101902.16;10507614;28;20032;-80
2023/06/01 11:46:26;;;;;;;20.97;10.73;;;;;;;28.82;40.77;101896.34;10508884;28;20074;-82
2023/06/01 11:51:37;;;;;;;15.40;9.30;;;;;;;28.83;37.08;101890.94;10493669;28;20040;-83
2023/06/01 11:56:40;;;;;;;19.08;10.65;;;;;;;28.29;39.67;101888.84;10493435;28;20483;-81
2023/06/01 12:01:42;;;;;;;15.02;9.10;;;;;;;28.11;39.69;101892.59;10509692;28;20036;-81
2023/06/01 12:06:43;;;;;;;13.18;9.05;;;;;;;28.58;37.74;101891.22;10508206;28;20379;-80
2023/06/01 12:11:44;;;;;;;23.40;9.90;;;;;;;28.84;36.80;101894.53;10509296;28;20066;-79
2023/06/01 12:16:56;;;;;;;15.18;9.98;;;;;;;28.50;36.09;101889.50;10508525;28;20142;-78
2023/06/01 12:21:57;;;;;;;14.15;8.93;;;;;;;28.26;38.95;101887.09;10526381;28;20071;-79
2023/06/01 12:26:58;;;;;;;17.13;9.40;;;;;;;28.48;37.70;101875.16;10466470;28;20037;-80
2023/06/01 12:31:59;;;;;;;;;;;;;;;28.44;37.96;101855.50;10524936;28;20682;-80
2023/06/01 12:37:10;;;;;;;13.57;8.60;;;;;;;28.25;38.58;101868.25;10524799;28;19916;-80
2023/06/01 12:42:11;;;;;;;14.43;7.90;;;;;;;28.09;36.74;101860.28;10465792;28;20045;-80
2023/06/01 12:47:11;;;;;;;16.98;8.95;;;;;;;28.27;37.08;101863.75;10497539;28;20040;-79
2023/06/01 12:52:12;;;;;;;32.47;10.77;;;;;;;28.30;37.40;101858.31;10507068;28;20051;-80
2023/06/01 12:57:13;;;;;;;16.07;10.17;;;;;;;26.70;38.54;101847.78;10524130;28;20070;-82
2023/06/01 13:02:14;;;;;;;12.65;7.07;;;;;;;26.72;38.27;101854.94;10506879;28;20032;-82
2023/06/01 13:07:15;;;;;;;14.40;10.07;;;;;;;27.00;39.85;101851.25;10507876;28;20111;-80
2023/06/01 13:12:15;;;;;;;18.55;9.73;;;;;;;27.84;39.54;101847.06;10524187;28;20128;-80
2023/06/01 13:17:16;;;;;;;15.63;8.03;;;;;;;28.38;36.74;101848.34;10507006;28;20370;-81
2023/06/01 13:22:16;;;;;;;13.30;9.70;;;;;;;28.25;38.43;101852.09;10523091;28;20138;-79
2023/06/01 13:27:17;;;;;;;16.17;7.73;;;;;;;28.16;37.39;101850.41;10507203;28;21157;-81
2023/06/01 13:32:17;;;;;;;21.70;9.60;;;;;;;27.81;36.07;101844.41;10499645;28;20051;-79
2023/06/01 13:37:18;;;;;;;15.33;9.40;;;;;;;27.38;39.78;101836.66;10535412;28;20056;-81
2023/06/01 13:42:18;;;;;;;14.50;9.60;;;;;;;27.77;39.38;101834.59;10525365;28;20119;-82
2023/06/01 13:47:19;;;;;;;13.20;8.43;;;;;;;28.06;38.08;101828.03;10447638;28;20454;-81
2023/06/01 13:52:19;;;;;;;15.80;9.37;;;;;;;27.75;37.98;101820.28;10500977;28;20043;-80
2023/06/01 13:57:20;;;;;;;13.70;8.73;;;;;;;27.37;38.81;101821.44;10514324;28;20169;-79
2023/06/01 14:02:21;;;;;;;21.03;10.93;;;;;;;27.85;40.28;101813.03;10513904;28;20463;-81
2023/06/01 14:07:21;;;;;;;17.40;8.63;;;;;;;27.89;40.20;101812.09;10513956;28;20032;-81
2023/06/01 14:12:22;;;;;;;12.43;8.33;;;;;;;27.58;39.06;101808.78;10529951;28;20036;-81
2023/06/01 14:17:23;;;;;;;11.87;8.77;;;;;;;27.08;39.85;101796.59;10514625;28;20093;-81
2023/06/01 14:22:23;;;;;;;18.08;8.80;;;;;;;26.57;44.49;101786.09;10530358;28;20109;-80
2023/06/01 14:27:24;;;;;;;18.83;10.20;;;;;;;26.97;41.29;101790.41;10531132;28;20044;-80
2023/06/01 14:32:24;;;;;;;16.33;9.07;;;;;;;26.01;42.57;101783.56;10531375;28;20472;-79
2023/06/01 14:37:25;;;;;;;18.93;9.97;;;;;;;24.67;42.35;101781.63;10511895;28;20145;-81
2023/06/01 14:42:26;;;;;;;13.97;8.07;;;;;;;24.55;45.84;101777.13;10495668;28;20097;-78
2023/06/01 14:47:26;;;;;;;12.33;8.40;;;;;;;24.63;47.86;101768.25;10530197;28;20126;-82
2023/06/01 14:52:26;;;;;;;23.60;8.20;;;;;;;24.93;46.79;101763.88;10511868;28;20062;-80
2023/06/01 14:57:27;;;;;;;11.30;6.53;;;;;;;24.95;46.75;101752.28;10529366;28;20107;-81
2023/06/01 15:02:28;;;;;;;10.80;6.40;;;;;;;24.02;49.79;101756.38;10511536;28;20082;-82
2023/06/01 15:07:28;;;;;;;13.60;7.03;;;;;;;23.36;51.19;101747.88;10530045;28;20123;-81
2023/06/01 15:12:29;;;;;;;13.90;6.83;;;;;;;22.93;53.23;101749.22;10509068;28;20131;-80
2023/06/01 15:17:29;;;;;;;14.77;8.43;;;;;;;22.55;56.76;101737.22;10510292;28;20123;-80
2023/06/01 15:22:30;;;;;;;14.60;6.73;;;;;;;22.43;58.37;101737.97;10499501;28;20071;-79
2023/06/01 15:27:30;;;;;;;17.77;9.17;;;;;;;22.33;57.90;101738.72;10534343;28;20189;-78
2023/06/01 15:32:31;;;;;;;10.50;5.83;;;;;;;22.16;58.84;101733.16;10484064;28;20040;-77
2023/06/01 15:37:31;;;;;;;10.67;5.97;;;;;;;22.03;59.78;101732.09;10499741;28;20169;-91
2023/06/01 15:42:32;;;;;;;12.07;6.37;;;;;;;21.91;57.26;101729.28;10460138;28;20436;-82
2023/06/01 15:47:33;;;;;;;16.67;6.93;;;;;;;21.85;59.18;101725.63;10505872;28;20598;-84
2023/06/01 15:52:33;;;;;;;20.00;10.67;;;;;;;21.71;59.11;101717.44;10478559;28;20055;-83
2023/06/01 15:57:34;;;;;;;13.70;5.23;;;;;;;21.78;59.09;101718.44;10511028;28;20503;-82
2023/06/01 16:02:34;;;;;;;16.07;7.23;;;;;;;21.65;58.26;101714.66;10499429;28;20039;-79
2023/06/01 16:07:34;;;;;;;21.80;7.40;;;;;;;21.53;63.12;101719.78;10497211;28;20067;-78
2023/06/01 16:12:35;;;;;;;13.13;6.73;;;;;;;21.38;65.06;101720.44;10486142;28;20044;-78
2023/06/01 16:17:36;;;;;;;16.17;7.40;;;;;;;21.35;72.83;101713.28;10504868;28;20063;-78
2023/06/01 16:22:36;;;;;;;16.77;8.73;;;;;;;21.15;71.26;101714.72;10508716;28;20067;-78
2023/06/01 16:27:37;;;;;;;12.70;6.20;;;;;;;20.93;82.99;101720.56;10512648;28;20484;-77
2023/06/01 16:32:37;;;;;;;25.03;7.40;;;;;;;20.65;96.77;101708.47;10509207;28;20519;-78
2023/06/01 16:37:38;;;;;;;13.30;7.67;;;;;;;20.45;100.00;101710.75;10477219;28;20060;-77
2023/06/01 16:42:38;;;;;;;16.83;8.13;;;;;;;20.18;100.00;101725.25;10491108;28;20032;-78
2023/06/01 16:47:39;;;;;;;12.82;6.45;;;;;;;19.90;100.00;101719.31;10509838;28;20108;-78
2023/06/01 16:52:39;;;;;;;11.33;6.33;;;;;;;19.68;100.00;101724.09;10484206;28;20448;-80
2023/06/01 16:57:40;;;;;;;10.98;6.30;;;;;;;19.34;100.00;101716.19;10497265;28;20038;-79
2023/06/01 17:02:40;;;;;;;26.23;9.38;;;;;;;19.17;100.00;101721.09;10525879;28;20110;-80
2023/06/01 17:07:41;;;;;;;18.05;6.88;;;;;;;19.04;100.00;101721.63;10502772;28;20067;-80
2023/06/01 17:12:42;;;;;;;20.77;7.47;;;;;;;18.87;100.00;101721.13;10489169;28;20032;-80
2023/06/01 17:17:42;;;;;;;11.38;5.45;;;;;;;18.63;100.00;101725.81;10491417;28;20535;-79
2023/06/01 17:22:44;;;;;;;11.48;6.05;;;;;;;18.42;100.00;101722.56;10512511;28;20043;-79
2023/06/01 17:27:45;;;;;;;19.77;6.85;;;;;;;18.22;100.00;101720.22;10513702;28;20032;-78
2023/06/01 17:32:45;;;;;;;11.18;5.80;;;;;;;17.99;100.00;101725.69;10520385;28;20123;-77
2023/06/01 17:37:46;;;;;;;14.30;7.10;;;;;;;17.85;100.00;101737.59;10494359;28;20067;-78
2023/06/01 17:42:46;;;;;;;9.75;7.60;;;;;;;17.62;100.00;101732.47;10478204;28;20501;-80
2023/06/01 17:47:48;;;;;;;18.27;7.90;;;;;;;17.37;100.00;101733.41;10479521;28;20109;-78
2023/06/01 17:52:48;;;;;;;11.98;7.43;;;;;;;17.13;100.00;101735.28;10494297;28;20099;-77
2023/06/01 17:57:49;;;;;;;13.57;7.75;;;;;;;16.86;100.00;101737.81;10538104;28;20036;-79
2023/06/01 18:02:49;;;;;;;12.40;6.13;;;;;;;16.64;100.00;101739.66;10533170;28;20068;-79
2023/06/01 18:07:50;;;;;;;13.00;6.40;;;;;;;16.36;100.00;101743.94;10496922;28;20404;-79
2023/06/01 18:12:50;;;;;;;8.98;5.18;;;;;;;16.12;100.00;101735.97;10482429;28;20132;-79
2023/06/01 18:17:51;;;;;;;13.38;6.00;;;;;;;15.88;100.00;101743.81;10513135;28;20090;-78
2023/06/01 18:22:52;;;;;;;17.85;6.32;;;;;;;15.73;100.00;101752.00;10495413;28;20059;-80
2023/06/01 18:27:52;;;;;;;8.98;4.75;;;;;;;15.50;100.00;101747.56;10526565;28;20135;-77
2023/06/01 18:32:52;;;;;;;6.13;4.78;;;;;;;15.31;100.00;101753.81;10518375;28;20142;-76
2023/06/01 18:37:53;;;;;;;9.70;5.05;;;;;;;15.12;100.00;101757.41;10537835;28;20111;-76
2023/06/01 18:42:54;;;;;;;16.10;6.63;;;;;;;14.93;100.00;101746.06;10485186;28;20028;-77
2023/06/01 18:47:54;;;;;;;10.65;5.35;;;;;;;14.74;100.00;101748.72;10515296;28;20062;-78
2023/06/01 18:52:55;;;;;;;20.00;10.90;;;;;;;14.55;100.00;101745.22;10534619;28;20046;-77
2023/06/01 18:57:55;;;;;;;14.35;5.18;;;;;;;14.38;100.00;101761.16;10517786;28;20527;-77
2023/06/01 19:02:56;;;;;;;7.90;4.57;;;;;;;14.16;100.00;101764.53;10517903;28;20040;-77
2023/06/01 19:07:56;;;;;;;7.60;4.43;;;;;;;13.93;100.00;101779.19;10517172;28;20062;-77
2023/06/01 19:13:01;;;;;;;8.73;5.65;;;;;;;13.86;100.00;101779.72;10493902;28;20124;-77
2023/06/01 19:18:01;;;;;;;9.68;4.32;;;;;;;13.67;100.00;101783.19;10486413;28;20051;-77
2023/06/01 19:23:05;;;;;;;6.00;4.20;;;;;;;13.48;100.00;101793.69;10503395;28;20131;-78
2023/06/01 19:28:06;;;;;;;5.85;3.80;;;;;;;13.30;100.00;101793.63;10489636;28;20049;-77
2023/06/01 19:33:07;;;;;;;12.35;4.93;;;;;;;13.11;100.00;101793.50;10500064;28;20040;-77
2023/06/01 19:38:07;;;;;;;8.52;4.40;;;;;;;12.88;100.00;101799.34;10505317;28;20190;-77
2023/06/01 19:43:07;;;;;;;7.15;3.80;;;;;;;12.77;100.00;101804.03;10490832;28;20040;-77
2023/06/01 19:48:18;;;;;;;8.18;3.95;;;;;;;12.66;100.00;101802.56;10475917;28;20039;-77
2023/06/01 19:53:19;;;;;;;7.35;4.68;;;;;;;12.68;100.00;101803.53;10517617;28;20112;-77
2023/06/01 19:58:21;;;;;;;13.07;6.75;;;;;;;12.74;100.00;101808.19;10504302;28;20048;-78
2023/06/01 20:03:21;;;;;;;;;;;;;;;12.84;100.00;101810.50;10528631;28;20032;-76
2023/06/01 20:08:22;;;;;;;10.68;6.13;;;;;;;12.90;100.00;101817.81;10506612;28;19920;-76
2023/06/01 20:13:22;;;;;;;8.88;4.13;;;;;;;13.09;100.00;101826.69;10509406;28;20038;-77
2023/06/01 20:18:24;;;;;;;14.50;6.82;;;;;;;13.19;100.00;101819.34;10491682;28;20050;-75
2023/06/01 20:23:25;;;;;;;12.85;5.68;;;;;;;13.20;100.00;101822.88;10501143;28;20063;-78
2023/06/01 20:28:48;;;;;;;6.45;4.70;;;;;;;13.16;100.00;101831.44;10506478;28;20131;-76
2023/06/01 20:33:49;;;;;;;10.25;4.70;;;;;;;12.90;100.00;101825.72;10470488;28;20555;-77
2023/06/01 20:38:50;;;;;;;8.98;5.43;;;;;;;12.47;100.00;101821.63;10474269;28;20054;-77
2023/06/01 20:43:51;;;;;;;11.55;4.82;;;;;;;12.15;100.00;101828.63;10460817;28;20040;-77
2023/06/01 20:48:53;;;;;;;11.53;5.20;;;;;;;11.78;100.00;101830.00;10502463;28;20073;-77
2023/06/01 20:53:58;;;;;;;12.00;5.93;;;;;;;11.54;100.00;101829.47;10467058;28;20047;-76
2023/06/01 20:59:11;;;;;;;8.90;5.47;;;;;;;11.33;100.00;101831.72;10530805;28;20052;-76
2023/06/01 21:04:16;;;;;;;9.07;5.22;;;;;;;11.06;100.00;101838.00;10517495;28;20044;-76
2023/06/01 21:09:18;;;;;;;14.63;6.85;;;;;;;10.85;100.00;101837.59;10489934;28;20396;-75
2023/06/01 21:14:19;;;;;;;12.30;5.40;;;;;;;10.79;100.00;101842.44;10462725;28;20047;-78
2023/06/01 21:19:20;;;;;;;13.63;5.15;;;;;;;10.66;100.00;101840.75;10523426;28;20395;-78
2023/06/01 21:24:21;;;;;;;15.10;7.00;;;;;;;10.45;100.00;101850.78;10488420;28;20059;-78
2023/06/01 21:29:21;;;;;;;9.43;5.07;;;;;;;10.37;100.00;101868.56;10499289;28;20041;-77
2023/06/01 21:34:22;;;;;;;10.75;5.68;;;;;;;10.34;100.00;101871.91;10499910;28;20096;-77
2023/06/01 21:39:23;;;;;;;9.88;6.32;;;;;;;10.16;100.00;101870.72;10515610;28;20064;-77
2023/06/01 21:44:24;;;;;;;14.17;7.33;;;;;;;10.04;100.00;101876.94;10505317;28;20978;-77
2023/06/01 21:49:24;;;;;;;16.40;5.10;;;;;;;9.92;100.00;101879.63;10523892;28;20115;-77
2023/06/01 21:54:25;;;;;;;10.43;5.03;;;;;;;9.78;100.00;101876.13;10492639;28;20059;-77
2023/06/01 21:59:25;;;;;;;12.80;7.03;;;;;;;9.77;100.00;101876.00;10515142;28;20047;-78
2023/06/01 22:04:26;;;;;;;11.07;5.43;;;;;;;9.77;100.00;101865.53;10491633;28;20119;-77
2023/06/01 22:09:26;;;;;;;8.85;4.30;;;;;;;9.93;100.00;101880.56;10502478;28;20510;-77
2023/06/01 22:14:27;;;;;;;8.60;5.35;;;;;;;10.26;100.00;101883.59;10507976;28;20072;-77
2023/06/01 22:19:27;;;;;;;11.90;5.20;;;;;;;10.55;100.00;101872.38;10492527;28;20048;-77
2023/06/01 22:24:28;;;;;;;8.88;4.90;;;;;;;10.84;100.00;101869.81;10486775;28;20396;-77
2023/06/01 22:29:28;;;;;;;11.13;6.05;;;;;;;11.03;100.00;101866.63;10512753;28;20562;-77
2023/06/01 22:34:29;;;;;;;8.23;4.88;;;;;;;11.22;100.00;101867.75;10507711;28;20119;-78
2023/06/01 22:39:30;;;;;;;12.63;5.03;;;;;;;11.35;100.00;101861.56;10493534;28;20662;-78